Time;durP1;ratioP1;P1;durP2;ratioP2;P2;SDS_P1;SDS_P2;PMS_P1;PMS_P2;Temp;Humidity;BMP_temperature;BMP_pressure;BME280_temperature;BME280_humidity;BME280_pressure;Samples;Min_cycle;Max_cycle;Signal;HPM_P1;HPM_P2
2022/12/12 00:00:49;;;;;;;29.25;9.65;;;;;;;-4.29;54.70;101164.22;5028312;28;20378;-74
2022/12/12 00:03:14;;;;;;;33.25;11.40;;;;;;;-4.06;54.21;101158.84;5028860;28;20061;-70
2022/12/12 00:05:40;;;;;;;31.83;10.27;;;;;;;-4.00;53.97;101164.97;5025407;28;20041;-72
2022/12/12 00:08:06;;;;;;;22.92;9.98;;;;;;;-4.04;54.09;101175.91;5025961;28;20135;-65
2022/12/12 00:10:32;;;;;;;33.90;11.30;;;;;;;-3.99;53.88;101182.00;5026709;28;20025;-64
2022/12/12 00:12:58;;;;;;;32.22;10.95;;;;;;;-3.97;54.03;101175.22;5024719;28;20045;-64
2022/12/12 00:15:23;;;;;;;30.08;10.85;;;;;;;-4.16;54.20;101191.78;5026919;28;20421;-65
2022/12/12 00:17:48;;;;;;;27.92;12.15;;;;;;;-4.11;53.78;101182.56;5026112;28;20053;-64
2022/12/12 00:20:14;;;;;;;30.48;12.07;;;;;;;-4.17;54.03;101186.63;5028846;28;20044;-64
2022/12/12 00:22:40;;;;;;;28.35;10.75;;;;;;;-4.20;54.34;101184.88;5024518;28;20041;-66
2022/12/12 00:25:06;;;;;;;27.98;9.48;;;;;;;-4.16;53.89;101185.84;5028144;28;20047;-67
2022/12/12 00:27:32;;;;;;;32.58;11.27;;;;;;;-4.30;54.33;101178.69;5023427;28;20034;-66
2022/12/12 00:29:58;;;;;;;29.80;11.52;;;;;;;-4.23;54.14;101178.81;5026673;28;20093;-67
2022/12/12 00:32:24;;;;;;;26.10;10.63;;;;;;;-4.16;54.11;101183.28;5025655;28;20442;-67
2022/12/12 00:34:49;;;;;;;39.10;12.07;;;;;;;-4.19;54.05;101180.63;5022584;28;20084;-67
2022/12/12 00:37:15;;;;;;;37.15;12.70;;;;;;;-4.16;53.95;101175.63;5024346;28;20490;-66
2022/12/12 00:39:41;;;;;;;35.40;11.95;;;;;;;-4.13;54.27;101178.25;5026879;28;20030;-66
2022/12/12 00:42:07;;;;;;;35.10;12.43;;;;;;;-4.18;53.92;101177.25;5026002;28;20068;-65
2022/12/12 00:44:32;;;;;;;31.75;11.45;;;;;;;-4.33;54.20;101183.69;5028540;28;20184;-65
2022/12/12 00:46:58;;;;;;;36.17;12.13;;;;;;;-4.27;54.12;101185.53;5027370;28;20100;-66
2022/12/12 00:49:23;;;;;;;33.85;12.20;;;;;;;-4.30;54.32;101183.78;5026481;28;20051;-66
2022/12/12 00:51:49;;;;;;;37.50;11.80;;;;;;;-4.26;54.07;101187.25;5027762;28;20017;-67
2022/12/12 00:54:14;;;;;;;30.85;12.68;;;;;;;-4.29;54.40;101174.44;5026540;28;20040;-66
2022/12/12 00:56:40;;;;;;;34.50;12.55;;;;;;;-4.31;54.30;101187.13;5025707;28;20041;-67
2022/12/12 00:59:05;;;;;;;35.72;13.90;;;;;;;-4.43;54.48;101191.94;5042022;28;20032;-65
2022/12/12 01:01:32;;;;;;;41.53;14.50;;;;;;;-4.39;54.53;101193.75;5023059;28;20564;-65
2022/12/12 01:03:59;;;;;;;40.00;13.55;;;;;;;-4.34;54.54;101192.19;5023312;28;20056;-66
2022/12/12 01:06:25;;;;;;;40.35;13.73;;;;;;;-4.32;54.31;101190.53;5027729;28;20592;-64
2022/12/12 01:08:51;;;;;;;32.03;12.57;;;;;;;-4.26;54.53;101191.50;5023484;28;20056;-64
2022/12/12 01:11:17;;;;;;;35.00;13.65;;;;;;;-4.27;54.28;101187.25;5031717;28;20037;-65
2022/12/12 01:13:44;;;;;;;41.85;14.43;;;;;;;-4.25;54.29;101198.34;5022508;28;20080;-65
2022/12/12 01:16:11;;;;;;;38.20;14.23;;;;;;;-4.23;54.20;101199.22;5033889;28;20037;-64
2022/12/12 01:18:37;;;;;;;35.22;13.75;;;;;;;-4.23;54.10;101194.13;5024342;28;20041;-63
2022/12/12 01:21:06;;;;;;;35.47;12.50;;;;;;;-4.25;54.05;101193.25;5029512;28;20029;-71
2022/12/12 01:23:31;;;;;;;47.53;14.77;;;;;;;-4.31;54.25;101199.91;5039761;28;20044;-67
2022/12/12 01:26:01;;;;;;;38.85;14.45;;;;;;;-4.38;54.34;101195.47;5041063;28;20099;-68
2022/12/12 01:28:27;;;;;;;50.17;15.27;;;;;;;-4.36;54.25;101193.81;5034161;28;20045;-68
2022/12/12 01:30:53;;;;;;;38.95;14.27;;;;;;;-4.37;54.27;101194.63;5029222;28;20324;-65
2022/12/12 01:33:19;;;;;;;38.67;12.82;;;;;;;-4.36;54.40;101196.38;5030935;28;20514;-67
2022/12/12 01:35:44;;;;;;;43.83;15.52;;;;;;;-4.34;54.40;101202.38;5029040;28;20078;-67
2022/12/12 01:38:10;;;;;;;37.33;13.43;;;;;;;-4.39;54.37;101203.06;5031475;28;20367;-68
2022/12/12 01:40:35;;;;;;;39.95;15.60;;;;;;;-4.39;54.35;101216.72;5027911;28;20108;-67
2022/12/12 01:43:01;;;;;;;46.38;14.88;;;;;;;-4.40;54.25;101209.88;5008106;28;20069;-67
2022/12/12 01:45:51;;;;;;;45.15;16.65;;;;;;;-4.45;54.63;101215.69;5010737;28;20096;-66
2022/12/12 01:48:18;;;;;;;43.30;13.43;;;;;;;-4.39;54.45;101213.28;5010085;28;20064;-65
2022/12/12 01:50:44;;;;;;;44.25;14.27;;;;;;;-4.43;54.29;101214.91;5008732;28;20034;-70
2022/12/12 01:53:12;;;;;;;46.72;15.68;;;;;;;-4.54;54.81;101214.59;5024330;28;20049;-69
2022/12/12 01:55:37;;;;;;;45.72;14.50;;;;;;;-4.55;55.03;101212.84;5027053;28;20029;-70
2022/12/12 01:58:04;;;;;;;46.47;15.20;;;;;;;-4.55;54.92;101212.00;5016949;28;20468;-69
2022/12/12 02:00:31;;;;;;;34.47;13.73;;;;;;;-4.52;54.83;101219.75;5009649;28;20033;-65
2022/12/12 02:02:56;;;;;;;38.08;15.02;;;;;;;-4.63;55.07;101214.34;5025908;28;20079;-65
2022/12/12 02:05:28;;;;;;;43.60;14.75;;;;;;;-4.55;54.79;101222.19;5010236;28;20128;-66
2022/12/12 02:07:54;;;;;;;38.83;13.48;;;;;;;-4.61;55.08;101219.47;5009383;28;20048;-65
2022/12/12 02:10:20;;;;;;;43.05;14.65;;;;;;;-4.57;54.87;101213.63;5010003;28;20049;-64
2022/12/12 02:12:46;;;;;;;43.53;17.33;;;;;;;-4.53;54.31;101211.22;5007520;28;20720;-65
2022/12/12 02:15:12;;;;;;;38.25;14.68;;;;;;;-4.58;54.43;101207.69;5019210;28;20036;-64
2022/12/12 02:18:07;;;;;;;43.47;16.15;;;;;;;-4.61;54.49;101222.03;5016045;28;20676;-66
2022/12/12 02:20:55;;;;;;;44.35;13.95;;;;;;;-4.88;55.43;101222.09;5027554;28;20030;-67
2022/12/12 02:24:09;;;;;;;48.47;14.98;;;;;;;-4.61;54.73;101222.03;5028577;28;20140;-67
2022/12/12 02:27:11;;;;;;;37.53;14.70;;;;;;;-4.62;54.50;101220.31;5035589;28;20300;-66
2022/12/12 02:30:14;;;;;;;52.42;14.02;;;;;;;-4.65;54.39;101220.22;5029167;28;20033;-67
2022/12/12 02:32:46;;;;;;;43.80;14.82;;;;;;;-4.74;54.51;101214.03;5041388;28;20045;-67
2022/12/12 02:35:36;;;;;;;43.80;15.98;;;;;;;-4.75;54.53;101214.84;5029128;28;20124;-66
2022/12/12 02:38:20;;;;;;;33.90;11.88;;;;;;;-4.71;53.99;101218.34;5042528;28;20045;-66
2022/12/12 02:41:00;;;;;;;41.35;13.50;;;;;;;-4.82;54.05;101228.25;5030131;28;20036;-64
2022/12/12 02:43:35;;;;;;;41.25;12.60;;;;;;;-4.82;53.84;101224.84;5043713;28;20045;-67
2022/12/12 02:46:26;;;;;;;41.85;14.73;;;;;;;-4.95;54.46;101221.94;5043510;28;20044;-64
2022/12/12 02:49:04;;;;;;;44.60;14.03;;;;;;;-4.99;54.62;101221.78;5023037;28;20053;-65
2022/12/12 02:51:32;;;;;;;43.17;14.60;;;;;;;-4.99;54.62;101219.22;5036017;28;20284;-65
2022/12/12 02:53:59;;;;;;;40.92;13.70;;;;;;;-5.05;54.48;101219.94;5025931;28;20448;-65
2022/12/12 02:56:49;;;;;;;42.88;13.82;;;;;;;-5.09;54.73;101219.78;5041714;28;20036;-65
2022/12/12 02:59:23;;;;;;;36.97;12.82;;;;;;;-5.11;54.46;101226.53;5028557;28;20044;-66
2022/12/12 03:02:00;;;;;;;37.00;13.80;;;;;;;-5.11;54.61;101235.03;5024612;28;20036;-67
2022/12/12 03:07:46;;;;;;;41.30;14.07;;;;;;;-4.99;54.48;101239.63;4990016;28;20052;-67
2022/12/12 03:10:15;;;;;;;39.00;13.27;;;;;;;-5.06;54.62;101240.28;5016961;28;20345;-67
2022/12/12 03:13:01;;;;;;;41.58;13.88;;;;;;;-5.00;54.98;101240.47;5026127;28;20068;-67
2022/12/12 03:15:33;;;;;;;40.63;12.65;;;;;;;-4.93;55.08;101244.91;5042858;28;20273;-68
2022/12/12 03:17:59;;;;;;;;;;;;;;;-4.85;55.15;101242.59;5025799;28;20046;-68
2022/12/12 03:21:03;;;;;;;46.58;15.10;;;;;;;-4.79;55.36;101238.56;5026352;28;19919;-67
2022/12/12 03:23:52;;;;;;;42.83;13.73;;;;;;;-4.74;55.28;101231.88;4999799;28;20045;-68
2022/12/12 03:26:29;;;;;;;42.30;14.18;;;;;;;-4.70;55.17;101237.97;5034905;28;20045;-67
2022/12/12 03:29:07;;;;;;;40.03;15.93;;;;;;;-4.62;55.27;101230.50;5023703;28;20072;-68
2022/12/12 03:31:37;;;;;;;50.03;14.82;;;;;;;-4.52;55.11;101229.97;5026692;28;20049;-68
2022/12/12 03:34:12;;;;;;;43.47;15.55;;;;;;;-4.51;55.05;101229.13;5025885;28;20037;-67
2022/12/12 03:36:53;;;;;;;46.63;14.63;;;;;;;-4.47;55.25;101230.94;5024035;28;20532;-68
2022/12/12 03:39:27;;;;;;;46.42;16.02;;;;;;;-4.45;54.91;101234.41;5035150;28;20229;-67
2022/12/12 03:42:25;;;;;;;46.20;13.13;;;;;;;-4.39;54.93;101237.13;5032631;28;20413;-64
2022/12/12 03:45:04;;;;;;;49.70;13.40;;;;;;;-4.36;54.88;101237.19;5020109;28;20584;-65
2022/12/12 03:47:46;;;;;;;40.72;14.73;;;;;;;-4.27;55.03;101234.03;5041774;28;20046;-66
2022/12/12 03:50:19;;;;;;;42.45;14.38;;;;;;;-4.22;54.78;101244.38;5027515;28;20042;-67
2022/12/12 03:52:57;;;;;;;49.22;15.05;;;;;;;-4.18;54.85;101248.75;5019941;28;20076;-66
2022/12/12 03:55:46;;;;;;;43.45;14.88;;;;;;;-4.01;54.66;101246.63;5021834;28;20041;-65
2022/12/12 03:58:45;;;;;;;41.42;14.65;;;;;;;-3.91;54.54;101246.91;5004435;28;20046;-66
2022/12/12 04:01:12;;;;;;;46.45;15.68;;;;;;;-3.91;54.60;101241.78;5001881;28;20897;-68
2022/12/12 04:03:59;;;;;;;43.00;15.60;;;;;;;-3.91;54.75;101239.25;5005200;28;20076;-68
2022/12/12 04:06:37;;;;;;;44.80;14.75;;;;;;;-3.91;54.51;101254.56;5014303;28;20509;-68
2022/12/12 04:15:05;;;;;;;39.72;13.80;;;;;;;-3.78;54.19;101244.66;5026707;28;20052;-67
2022/12/12 04:17:47;;;;;;;46.22;15.57;;;;;;;-3.78;54.26;101249.78;5025663;28;20045;-68
2022/12/12 04:23:38;;;;;;;39.55;13.90;;;;;;;-3.73;53.97;101249.06;5025590;28;20450;-66
2022/12/12 04:29:42;;;;;;;42.13;14.40;;;;;;;-3.68;54.03;101249.16;5024810;28;20052;-67
2022/12/12 04:32:17;;;;;;;35.45;13.10;;;;;;;-3.71;53.89;101249.09;5011056;28;20056;-65
2022/12/12 04:34:43;;;;;;;48.03;15.27;;;;;;;-3.75;53.89;101250.69;5043147;28;20040;-67
2022/12/12 04:37:12;;;;;;;54.47;16.08;;;;;;;-3.75;53.95;101244.72;5026434;28;20529;-67
2022/12/12 04:39:40;;;;;;;40.00;13.02;;;;;;;-3.88;54.11;101244.41;5028591;28;20060;-68
2022/12/12 04:42:09;;;;;;;44.58;12.60;;;;;;;-3.80;54.28;101241.22;5026231;28;20495;-67
2022/12/12 04:44:40;;;;;;;21.65;9.48;;;;;;;-3.75;54.08;101239.63;5024867;28;20033;-67
2022/12/12 04:47:08;;;;;;;38.63;14.32;;;;;;;-3.75;54.33;101234.50;5025484;28;20046;-65
2022/12/12 04:49:35;;;;;;;42.05;13.32;;;;;;;-3.70;54.00;101232.94;5026222;28;22017;-65
2022/12/12 04:52:06;;;;;;;36.53;12.63;;;;;;;-3.76;53.85;101237.91;5024599;28;20045;-67
2022/12/12 04:54:46;;;;;;;35.35;13.90;;;;;;;-3.79;53.85;101237.81;5024253;28;20040;-67
2022/12/12 04:57:20;;;;;;;40.33;14.35;;;;;;;-3.79;53.86;101232.72;5027104;28;20053;-68
2022/12/12 04:59:45;;;;;;;42.65;13.88;;;;;;;-3.73;53.89;101240.53;5041819;28;20036;-66
2022/12/12 05:02:17;;;;;;;37.70;13.25;;;;;;;-3.73;53.91;101240.53;5022636;28;20037;-66
2022/12/12 05:04:55;;;;;;;40.05;13.43;;;;;;;-3.76;53.80;101237.91;5023659;28;20821;-67
2022/12/12 05:07:38;;;;;;;41.90;13.95;;;;;;;-3.70;53.84;101238.03;5024842;28;20033;-67
2022/12/12 05:10:12;;;;;;;42.10;12.45;;;;;;;-3.70;53.93;101253.38;5027433;28;20486;-67
2022/12/12 05:12:43;;;;;;;37.10;14.15;;;;;;;-3.67;53.76;101248.34;5020790;28;20041;-64
2022/12/12 05:15:09;;;;;;;42.80;14.52;;;;;;;-3.67;54.04;101254.31;5024529;28;20344;-62
2022/12/12 05:17:46;;;;;;;50.08;13.65;;;;;;;-3.60;53.78;101250.22;5025465;28;20635;-63
2022/12/12 05:20:12;;;;;;;39.42;13.02;;;;;;;-3.52;53.65;101243.63;5025628;28;20076;-67
2022/12/12 05:22:38;;;;;;;38.70;14.35;;;;;;;-3.57;53.44;101250.28;5038773;28;20029;-68
2022/12/12 05:25:04;;;;;;;37.53;14.52;;;;;;;-3.56;53.54;101257.16;5025705;28;20383;-66
2022/12/12 05:27:29;;;;;;;35.92;12.77;;;;;;;-3.53;53.67;101249.53;5023985;28;20045;-67
2022/12/12 05:29:55;;;;;;;40.13;13.77;;;;;;;-3.55;53.58;101256.31;5025639;28;21468;-66
2022/12/12 05:32:20;;;;;;;39.00;12.02;;;;;;;-3.44;53.77;101258.28;5026041;28;20061;-67
2022/12/12 05:34:46;;;;;;;38.30;15.23;;;;;;;-3.60;53.47;101252.78;5026305;28;20059;-68
2022/12/12 05:37:11;;;;;;;39.75;12.88;;;;;;;-3.47;53.56;101249.69;5025691;28;20457;-69
2022/12/12 05:39:36;;;;;;;32.83;13.35;;;;;;;-3.43;53.58;101257.44;5033077;28;20052;-68
2022/12/12 05:42:02;;;;;;;41.42;13.48;;;;;;;-3.47;53.44;101266.72;5027269;28;20046;-68
2022/12/12 05:44:28;;;;;;;42.50;14.90;;;;;;;-3.50;53.47;101262.38;5006588;28;20029;-67
2022/12/12 05:46:53;;;;;;;34.55;11.48;;;;;;;-3.47;53.48;101259.91;5004429;28;20528;-68
2022/12/12 05:49:19;;;;;;;38.08;13.73;;;;;;;-3.42;53.60;101260.03;5003494;28;20045;-69
2022/12/12 05:51:44;;;;;;;32.60;13.02;;;;;;;-3.37;53.27;101257.56;5019645;28;20068;-67
2022/12/12 05:54:10;;;;;;;37.22;11.60;;;;;;;-3.38;53.37;101258.41;5006215;28;20124;-68
2022/12/12 05:56:35;;;;;;;32.67;12.13;;;;;;;-3.44;53.68;101271.03;5006803;28;20061;-68
2022/12/12 05:59:01;;;;;;;43.40;14.45;;;;;;;-3.50;53.42;101264.94;5006044;28;20452;-72
2022/12/12 06:01:26;;;;;;;39.15;14.07;;;;;;;-3.40;53.32;101267.75;5007562;28;20060;-66
2022/12/12 06:03:52;;;;;;;43.20;14.80;;;;;;;-3.40;53.18;101260.06;5005948;28;20524;-67
2022/12/12 06:06:18;;;;;;;33.00;12.52;;;;;;;-3.40;52.72;101263.50;5009937;28;20033;-66
2022/12/12 06:08:44;;;;;;;42.83;13.63;;;;;;;-3.44;53.40;101265.94;5011925;28;20038;-69
2022/12/12 06:11:09;;;;;;;40.63;13.32;;;;;;;-3.51;53.46;101263.22;5007819;28;20034;-69
2022/12/12 06:13:36;;;;;;;39.15;12.73;;;;;;;-3.57;53.28;101257.94;5005563;28;20347;-69
2022/12/12 06:16:10;;;;;;;37.88;13.50;;;;;;;-3.52;53.54;101258.06;5009496;28;20041;-68
2022/12/12 06:18:36;;;;;;;38.33;13.77;;;;;;;-3.40;53.58;101262.63;5009168;28;20517;-70
2022/12/12 06:21:07;;;;;;;39.85;12.45;;;;;;;-3.39;53.37;101260.09;5010967;28;20203;-70
2022/12/12 06:23:38;;;;;;;35.50;13.52;;;;;;;-3.42;53.31;101256.63;5008072;28;20148;-69
2022/12/12 06:26:04;;;;;;;39.58;13.38;;;;;;;-3.48;53.30;101253.06;5016548;28;20379;-70
2022/12/12 06:28:30;;;;;;;47.85;14.80;;;;;;;-3.60;53.13;101259.59;5024128;28;20053;-68
2022/12/12 06:30:55;;;;;;;43.22;14.35;;;;;;;-3.69;53.21;101260.22;5005913;28;20041;-66
2022/12/12 06:33:21;;;;;;;42.65;14.90;;;;;;;-3.77;53.22;101259.16;5008786;28;20045;-65
2022/12/12 06:35:57;;;;;;;39.88;13.27;;;;;;;-3.89;53.07;101263.13;5008058;28;20033;-67
2022/12/12 06:38:22;;;;;;;35.53;12.88;;;;;;;-3.89;53.17;101269.94;5006359;28;20119;-66
2022/12/12 06:40:48;;;;;;;40.75;13.00;;;;;;;-4.05;53.46;101267.78;5007753;28;20017;-68
2022/12/12 06:43:13;;;;;;;40.50;14.13;;;;;;;-4.10;53.61;101262.56;5004215;28;20568;-66
2022/12/12 06:45:39;;;;;;;41.72;14.77;;;;;;;-4.15;53.51;101266.69;5006651;28;20100;-67
2022/12/12 06:48:04;;;;;;;42.20;13.75;;;;;;;-4.23;53.65;101265.59;5006728;28;20419;-67
2022/12/12 06:50:30;;;;;;;43.65;13.35;;;;;;;-4.22;53.74;101269.91;5009029;28;20117;-67
2022/12/12 06:52:55;;;;;;;41.88;12.55;;;;;;;-4.28;53.25;101274.81;5005995;28;20128;-68
2022/12/12 06:55:21;;;;;;;36.95;13.75;;;;;;;-4.37;53.46;101273.75;5008827;28;20129;-68
2022/12/12 06:57:46;;;;;;;45.50;13.43;;;;;;;-4.37;53.69;101277.97;5005150;28;20045;-67
2022/12/12 07:00:12;;;;;;;40.08;14.15;;;;;;;-4.41;53.81;101279.59;5009621;28;20014;-66
2022/12/12 07:02:38;;;;;;;38.80;12.90;;;;;;;-4.36;54.12;101285.69;5007938;28;20557;-68
2022/12/12 07:05:03;;;;;;;32.00;12.10;;;;;;;-4.18;53.69;101281.94;5025878;28;20108;-70
2022/12/12 07:07:29;;;;;;;41.38;14.38;;;;;;;-4.09;53.71;101289.84;4989594;28;20458;-68
2022/12/12 07:09:54;;;;;;;35.40;13.27;;;;;;;-4.12;53.59;101290.63;5016052;28;20092;-70
2022/12/12 07:12:20;;;;;;;46.58;13.07;;;;;;;-4.20;53.75;101292.09;5006745;28;20128;-67
2022/12/12 07:14:45;;;;;;;38.55;14.55;;;;;;;-4.24;53.83;101286.84;5007314;28;20124;-67
2022/12/12 07:17:10;;;;;;;41.42;14.07;;;;;;;-4.25;54.00;101287.69;5006760;28;20045;-67
2022/12/12 07:19:36;;;;;;;37.97;12.73;;;;;;;-4.25;54.14;101285.13;5022608;28;20331;-67
2022/12/12 07:22:01;;;;;;;48.90;14.27;;;;;;;-4.21;54.07;101284.38;5009353;28;20071;-67
2022/12/12 07:24:27;;;;;;;40.75;12.68;;;;;;;-4.16;53.82;101286.25;5015947;28;20041;-67
2022/12/12 07:26:52;;;;;;;37.00;13.85;;;;;;;-4.10;53.80;101294.06;5015397;28;20267;-67
2022/12/12 07:29:18;;;;;;;38.63;12.88;;;;;;;-4.15;53.95;101292.22;5028335;28;20474;-67
2022/12/12 07:31:43;;;;;;;37.92;14.40;;;;;;;-4.15;54.10;101295.63;5025780;28;20037;-67
2022/12/12 07:34:08;;;;;;;35.58;13.15;;;;;;;-4.18;54.17;101299.78;5028288;28;20323;-67
2022/12/12 07:36:34;;;;;;;44.25;15.63;;;;;;;-4.20;54.44;101302.28;5027709;28;20033;-68
2022/12/12 07:38:59;;;;;;;37.22;13.35;;;;;;;-4.16;54.43;101303.25;5041832;28;20460;-67
2022/12/12 07:41:25;;;;;;;37.67;14.95;;;;;;;-4.13;54.30;101309.28;5028257;28;20044;-66
2022/12/12 07:43:51;;;;;;;45.58;13.98;;;;;;;-3.98;54.17;101308.84;5026638;28;20121;-67
2022/12/12 07:46:23;;;;;;;43.85;14.00;;;;;;;-3.97;54.24;101314.81;5033958;28;20091;-67
2022/12/12 07:48:50;;;;;;;48.22;14.30;;;;;;;-3.97;54.24;101309.72;5040548;28;20540;-68
2022/12/12 07:51:16;;;;;;;39.47;14.07;;;;;;;-3.94;54.11;101322.59;5027900;28;20079;-66
2022/12/12 07:53:42;;;;;;;42.42;15.00;;;;;;;-3.89;54.23;101314.22;5025915;28;20049;-67
2022/12/12 07:56:09;;;;;;;40.22;14.60;;;;;;;-3.80;54.12;101313.59;5027458;28;20056;-67
2022/12/12 07:58:35;;;;;;;32.35;12.57;;;;;;;-3.67;54.01;101307.13;5026028;28;20049;-66
2022/12/12 08:01:11;;;;;;;29.92;13.05;;;;;;;-3.64;53.64;101314.00;5017838;28;20417;-67
2022/12/12 08:03:37;;;;;;;45.03;15.23;;;;;;;-3.64;53.71;101314.00;5030737;28;20064;-66
2022/12/12 08:06:06;;;;;;;46.70;14.38;;;;;;;-3.60;53.81;101319.22;5027009;28;20501;-67
2022/12/12 08:08:31;;;;;;;37.72;14.73;;;;;;;-3.61;53.51;101314.91;5026143;28;20549;-67
2022/12/12 08:10:57;;;;;;;40.65;14.48;;;;;;;-3.59;53.55;101318.38;5032380;28;20021;-66
2022/12/12 08:13:22;;;;;;;36.90;13.68;;;;;;;-3.51;53.48;101316.03;5022910;28;20399;-67
2022/12/12 08:15:48;;;;;;;33.72;13.00;;;;;;;-3.37;53.21;101321.47;5026621;28;20214;-68
2022/12/12 08:18:13;;;;;;;34.50;11.70;;;;;;;-3.31;53.38;101313.97;5025286;28;20413;-66
2022/12/12 08:20:39;;;;;;;29.13;11.68;;;;;;;-3.37;52.83;101317.22;5027398;28;20139;-67
2022/12/12 08:23:05;;;;;;;42.45;14.15;;;;;;;-3.42;53.03;101318.81;5026805;28;20045;-65
2022/12/12 08:25:32;;;;;;;37.78;14.60;;;;;;;-3.47;53.01;101312.72;5024433;28;20029;-65
2022/12/12 08:27:58;;;;;;;37.30;13.35;;;;;;;-3.37;53.24;101319.78;5025613;28;20057;-66
2022/12/12 08:30:23;;;;;;;36.10;13.98;;;;;;;-3.29;52.81;101317.44;5027200;28;20167;-66
2022/12/12 08:32:48;;;;;;;34.97;14.80;;;;;;;-3.21;52.91;101310.78;5024956;28;20072;-67
2022/12/12 08:35:14;;;;;;;40.05;13.77;;;;;;;-3.15;52.60;101313.50;5025701;28;20476;-67
2022/12/12 08:37:40;;;;;;;38.33;15.07;;;;;;;-3.12;52.58;101307.59;5039326;28;20049;-67
2022/12/12 08:40:08;;;;;;;40.03;12.88;;;;;;;-3.00;52.69;101319.81;5025784;28;20570;-67
2022/12/12 08:42:33;;;;;;;32.42;13.75;;;;;;;-2.89;52.40;101323.50;5027598;28;20036;-65
2022/12/12 08:44:59;;;;;;;36.88;13.77;;;;;;;-2.79;52.33;101322.84;5040042;28;20548;-67
2022/12/12 08:47:24;;;;;;;40.38;13.52;;;;;;;-2.47;52.27;101318.44;5025845;28;20560;-67
2022/12/12 08:49:49;;;;;;;37.33;13.55;;;;;;;-1.80;51.27;101324.03;5032973;28;20086;-68
2022/12/12 08:52:15;;;;;;;37.38;12.60;;;;;;;-1.48;49.74;101322.88;5022974;28;20049;-66
2022/12/12 08:54:40;;;;;;;36.85;14.98;;;;;;;-1.42;49.52;101323.84;5026155;28;20565;-67
2022/12/12 08:57:06;;;;;;;32.97;13.05;;;;;;;-1.49;48.18;101326.25;5025069;28;20064;-65
2022/12/12 08:59:31;;;;;;;39.55;14.63;;;;;;;-1.48;49.30;101328.00;5026486;28;20041;-67
2022/12/12 09:01:57;;;;;;;34.60;13.77;;;;;;;-1.73;48.82;101335.25;5025196;28;20124;-68
2022/12/12 09:04:22;;;;;;;37.72;14.60;;;;;;;-1.73;49.05;101335.25;5026566;28;20037;-66
2022/12/12 09:06:48;;;;;;;41.15;11.95;;;;;;;-1.90;48.85;101341.75;5022234;28;20024;-68
2022/12/12 09:09:13;;;;;;;36.17;13.80;;;;;;;-2.02;48.63;101339.84;5026680;28;20545;-69
2022/12/12 09:11:38;;;;;;;35.08;12.05;;;;;;;-2.18;48.74;101338.63;5020822;28;20029;-65
2022/12/12 09:14:04;;;;;;;39.30;14.70;;;;;;;-2.27;49.18;101331.66;5024076;28;20538;-67
2022/12/12 09:16:29;;;;;;;35.63;13.02;;;;;;;-2.47;49.16;101328.69;5026578;28;20087;-67
2022/12/12 09:18:55;;;;;;;28.90;11.63;;;;;;;-2.37;49.98;101334.84;5025514;28;21610;-67
2022/12/12 09:21:22;;;;;;;40.00;13.98;;;;;;;-2.36;49.65;101331.44;5025281;28;20037;-66
2022/12/12 09:23:48;;;;;;;34.78;13.57;;;;;;;-2.50;49.47;101338.84;5024502;28;20373;-66
2022/12/12 09:26:13;;;;;;;37.08;13.00;;;;;;;-2.34;50.31;101334.91;5040587;28;20069;-67
2022/12/12 09:28:39;;;;;;;37.30;12.93;;;;;;;-2.07;50.41;101333.72;5021540;28;20080;-66
2022/12/12 09:31:07;;;;;;;37.45;14.68;;;;;;;-1.80;49.70;101331.72;5026720;28;20409;-66
2022/12/12 09:33:33;;;;;;;39.90;14.38;;;;;;;-1.48;49.26;101331.41;5023741;28;20138;-66
2022/12/12 09:36:00;;;;;;;41.35;13.82;;;;;;;-1.22;48.75;101343.78;5025757;28;20460;-65
2022/12/12 09:38:26;;;;;;;35.40;13.13;;;;;;;-1.13;48.33;101338.81;5024664;28;20132;-67
2022/12/12 09:41:09;;;;;;;38.50;13.40;;;;;;;-0.81;47.21;101335.94;5026268;28;20037;-67
2022/12/12 09:43:48;;;;;;;40.38;12.93;;;;;;;-0.50;47.12;101334.66;5025678;28;20513;-67
2022/12/12 09:46:37;;;;;;;36.78;13.18;;;;;;;-0.38;47.45;101339.06;5035370;28;20032;-65
2022/12/12 09:49:27;;;;;;;34.40;13.63;;;;;;;-0.09;46.46;101336.84;5035235;28;20395;-67
2022/12/12 09:51:53;;;;;;;38.15;13.63;;;;;;;0.24;45.82;101335.50;5016180;28;20053;-66
2022/12/12 09:54:21;;;;;;;33.88;12.30;;;;;;;0.60;45.65;101347.84;5027780;28;20034;-67
2022/12/12 09:56:58;;;;;;;35.78;14.27;;;;;;;0.51;44.52;101340.06;5028573;28;20037;-70
2022/12/12 09:59:27;;;;;;;38.45;14.05;;;;;;;0.39;43.59;101345.06;5032353;28;20034;-72
2022/12/12 10:02:04;;;;;;;36.35;14.30;;;;;;;0.28;44.58;101345.84;5049002;28;21534;-69
2022/12/12 10:04:32;;;;;;;32.40;13.30;;;;;;;-0.25;45.03;101342.66;5029729;28;20040;-68
2022/12/12 10:07:09;;;;;;;39.55;13.48;;;;;;;-0.29;45.96;101346.91;5032020;28;20120;-66
2022/12/12 10:10:08;;;;;;;33.75;13.15;;;;;;;-0.56;45.97;101342.25;5027705;28;20702;-65
2022/12/12 10:12:34;;;;;;;40.75;14.98;;;;;;;-1.07;46.21;101338.91;5025125;28;20042;-69
2022/12/12 10:15:18;;;;;;;31.77;12.00;;;;;;;-1.12;47.21;101339.69;5030272;28;20509;-70
2022/12/12 10:17:46;;;;;;;34.75;13.20;;;;;;;-1.23;47.53;101350.63;5027553;28;20558;-75
2022/12/12 10:20:20;;;;;;;33.50;13.45;;;;;;;-1.10;47.55;101338.88;5044972;28;20051;-67
2022/12/12 10:22:51;;;;;;;33.70;14.82;;;;;;;-1.10;47.44;101338.88;5025778;28;20049;-67
2022/12/12 10:25:40;;;;;;;38.33;14.13;;;;;;;-1.49;48.26;101349.31;5010093;28;20036;-67
2022/12/12 10:28:13;;;;;;;40.05;14.57;;;;;;;-1.31;48.14;101348.78;5014627;28;20499;-67
2022/12/12 10:31:04;;;;;;;32.67;13.13;;;;;;;-0.94;47.91;101345.13;5007565;28;20411;-67
2022/12/12 10:33:35;;;;;;;41.05;14.10;;;;;;;-0.64;47.27;101339.59;5018463;28;20041;-67
2022/12/12 10:36:13;;;;;;;37.45;13.68;;;;;;;-0.49;47.06;101340.66;5019984;28;20041;-67
2022/12/12 10:39:13;;;;;;;33.22;14.30;;;;;;;-0.39;46.31;101334.81;5025453;28;20414;-67
2022/12/12 10:41:52;;;;;;;35.38;13.27;;;;;;;-0.49;46.99;101338.06;5043262;28;20060;-66
2022/12/12 10:44:32;;;;;;;38.83;13.63;;;;;;;-0.31;46.87;101340.88;5028526;28;20105;-67
2022/12/12 10:47:04;;;;;;;37.28;14.07;;;;;;;-1.14;47.47;101339.66;5026477;28;20053;-67
2022/12/12 10:49:30;;;;;;;30.85;13.75;;;;;;;-0.88;48.25;101340.09;5043253;28;20498;-67
2022/12/12 10:51:58;;;;;;;37.50;13.27;;;;;;;-1.02;48.57;101327.06;5029407;28;20028;-67
2022/12/12 10:54:26;;;;;;;36.03;13.60;;;;;;;-0.79;48.99;101329.13;5026699;28;20082;-66
2022/12/12 10:57:09;;;;;;;42.60;14.88;;;;;;;-0.67;47.81;101324.13;5040618;28;20363;-67
2022/12/12 10:59:56;;;;;;;38.88;14.65;;;;;;;-0.50;47.65;101321.81;5025056;28;20029;-67
2022/12/12 11:02:36;;;;;;;41.58;14.35;;;;;;;-0.40;47.81;101322.78;5042087;28;20133;-66
2022/12/12 11:05:33;;;;;;;35.75;15.02;;;;;;;-0.28;47.28;101317.81;5035262;28;20122;-66
2022/12/12 11:08:20;;;;;;;37.08;15.23;;;;;;;-0.14;46.70;101325.69;5017385;28;20053;-67
2022/12/12 11:11:18;;;;;;;37.83;13.00;;;;;;;-0.03;46.89;101318.94;5025908;28;20672;-65
2022/12/12 11:13:53;;;;;;;38.20;15.20;;;;;;;-0.04;46.09;101318.91;5022052;28;20405;-67
2022/12/12 11:16:39;;;;;;;42.38;16.48;;;;;;;-0.09;46.23;101318.88;5027379;28;20568;-66
2022/12/12 11:19:25;;;;;;;36.90;14.98;;;;;;;0.09;46.43;101325.91;5029809;28;20413;-67
2022/12/12 11:21:52;;;;;;;39.83;14.10;;;;;;;-0.31;46.34;101320.31;5009134;28;20379;-68
2022/12/12 11:24:21;;;;;;;40.90;14.90;;;;;;;-0.12;46.67;101321.41;5028832;28;20037;-67
2022/12/12 11:26:51;;;;;;;37.10;16.13;;;;;;;0.11;46.67;101326.81;5025916;28;20067;-66
2022/12/12 11:29:27;;;;;;;40.38;16.15;;;;;;;0.06;45.83;101326.75;5043774;28;20124;-66
2022/12/12 11:31:54;;;;;;;39.33;15.57;;;;;;;-0.06;46.13;101326.59;5042106;28;20045;-66
2022/12/12 11:34:23;;;;;;;39.40;14.70;;;;;;;0.07;46.49;101325.91;5030125;28;20064;-67
2022/12/12 11:36:49;;;;;;;43.25;14.43;;;;;;;-0.04;46.66;101322.34;5023956;28;20381;-67
2022/12/12 11:39:24;;;;;;;40.72;15.55;;;;;;;-0.00;46.58;101318.13;5026442;28;20029;-66
2022/12/12 11:42:03;;;;;;;38.50;14.05;;;;;;;0.02;46.78;101319.00;5032275;28;20229;-67